Time;durP1;ratioP1;P1;durP2;ratioP2;P2;SDS_P1;SDS_P2;PMS_P1;PMS_P2;Temp;Humidity;BMP_temperature;BMP_pressure;BME280_temperature;BME280_humidity;BME280_pressure;Samples;Min_cycle;Max_cycle;Signal;HPM_P1;HPM_P2
2022/03/14 00:02:09;;;;;;;4.97;3.17;;;23.50;27.80;;;;;;5066070;28;20090;-48
2022/03/14 00:04:38;;;;;;;4.50;3.00;;;23.50;27.80;;;;;;5066743;28;20107;-49
2022/03/14 00:07:05;;;;;;;5.57;3.13;;;23.50;27.80;;;;;;5066384;28;20036;-49
2022/03/14 00:09:30;;;;;;;4.63;2.85;;;23.50;27.80;;;;;;5065442;28;20035;-48
2022/03/14 00:11:57;;;;;;;4.57;3.10;;;23.50;27.70;;;;;;5065644;28;20036;-49
2022/03/14 00:14:25;;;;;;;4.75;3.00;;;23.50;27.70;;;;;;5065250;28;20037;-49
2022/03/14 00:16:52;;;;;;;5.20;2.97;;;23.50;27.80;;;;;;5064582;28;20461;-47
2022/03/14 00:19:20;;;;;;;5.00;3.33;;;23.50;27.70;;;;;;5065618;28;20025;-49
2022/03/14 00:21:47;;;;;;;4.68;2.97;;;23.50;27.70;;;;;;5065918;28;20036;-49
2022/03/14 00:24:12;;;;;;;5.05;3.45;;;23.40;27.70;;;;;;5065764;28;20124;-48
2022/03/14 00:26:39;;;;;;;5.20;3.50;;;23.50;27.70;;;;;;5065342;28;20025;-48
2022/03/14 00:29:06;;;;;;;4.93;3.17;;;23.40;27.60;;;;;;5064357;28;20220;-48
2022/03/14 00:31:32;;;;;;;4.10;2.92;;;23.40;27.50;;;;;;5064380;28;20471;-49
2022/03/14 00:33:58;;;;;;;4.75;3.20;;;23.40;27.60;;;;;;5065418;28;20538;-47
2022/03/14 00:36:27;;;;;;;5.20;3.25;;;23.40;27.70;;;;;;5065543;28;20024;-49
2022/03/14 00:38:54;;;;;;;4.35;2.72;;;23.40;27.60;;;;;;5065088;28;20032;-48
2022/03/14 00:41:20;;;;;;;5.07;3.20;;;23.30;27.60;;;;;;5065924;28;20032;-49
2022/03/14 00:43:46;;;;;;;5.65;3.33;;;23.30;27.70;;;;;;5065176;28;20376;-47
2022/03/14 00:46:16;;;;;;;4.72;3.33;;;23.30;27.70;;;;;;5063920;28;20249;-48
2022/03/14 00:48:42;;;;;;;5.15;3.13;;;23.30;27.60;;;;;;5064477;28;20028;-48
2022/03/14 00:51:08;;;;;;;5.38;3.75;;;23.30;27.70;;;;;;5064218;28;20098;-48
2022/03/14 00:53:35;;;;;;;4.53;3.25;;;23.30;27.60;;;;;;5065232;28;20021;-48
2022/03/14 00:56:01;;;;;;;5.68;3.40;;;23.30;27.60;;;;;;5065293;28;20039;-48
2022/03/14 00:58:29;;;;;;;4.90;3.20;;;23.30;27.60;;;;;;5064887;28;20071;-48
2022/03/14 01:00:55;;;;;;;4.90;2.85;;;23.30;27.60;;;;;;5065272;28;20627;-48
2022/03/14 01:03:20;;;;;;;4.70;2.95;;;23.30;27.60;;;;;;5064695;28;20044;-48
2022/03/14 01:05:46;;;;;;;4.03;2.50;;;23.20;27.50;;;;;;5063991;28;20028;-48
2022/03/14 01:08:12;;;;;;;4.45;2.90;;;23.20;27.50;;;;;;5065130;28;20020;-48
2022/03/14 01:10:38;;;;;;;4.78;3.13;;;23.30;27.60;;;;;;5064893;28;20090;-48
2022/03/14 01:13:04;;;;;;;5.05;2.88;;;23.20;27.50;;;;;;5064284;28;20090;-49
2022/03/14 01:15:34;;;;;;;4.75;3.17;;;23.20;27.50;;;;;;5062385;28;20036;-48
2022/03/14 01:18:00;;;;;;;4.80;3.10;;;23.20;27.50;;;;;;5064077;28;20020;-48
2022/03/14 01:20:26;;;;;;;4.70;3.25;;;23.20;27.50;;;;;;5064993;28;20032;-47
2022/03/14 01:22:55;;;;;;;4.20;2.75;;;23.20;27.50;;;;;;5065689;28;20028;-48
2022/03/14 01:25:24;;;;;;;5.15;2.97;;;23.20;27.50;;;;;;5064912;28;20032;-49
2022/03/14 01:27:50;;;;;;;5.10;3.53;;;23.20;27.50;;;;;;5064857;28;20103;-48
2022/03/14 01:30:17;;;;;;;4.32;2.80;;;23.20;27.50;;;;;;5062689;28;20465;-48
2022/03/14 01:32:43;;;;;;;4.50;3.00;;;23.10;27.50;;;;;;5064504;28;20035;-49
2022/03/14 01:35:09;;;;;;;5.10;3.33;;;23.10;27.50;;;;;;5065020;28;20024;-47
2022/03/14 01:37:34;;;;;;;4.20;2.97;;;23.10;27.50;;;;;;5052818;28;20033;-48
2022/03/14 01:40:00;;;;;;;4.05;2.90;;;23.10;27.50;;;;;;5056503;28;20036;-48
2022/03/14 01:42:26;;;;;;;4.60;2.80;;;23.10;27.60;;;;;;5064434;28;20039;-48
2022/03/14 01:44:52;;;;;;;5.45;3.25;;;23.10;27.50;;;;;;5064008;28;20466;-48
2022/03/14 01:47:18;;;;;;;5.07;3.30;;;23.10;27.60;;;;;;5062751;28;20024;-49
2022/03/14 01:49:45;;;;;;;5.22;3.25;;;23.10;27.60;;;;;;5062717;28;20037;-47
2022/03/14 01:52:13;;;;;;;4.22;2.80;;;23.10;27.60;;;;;;5064761;28;20024;-49
2022/03/14 01:54:40;;;;;;;4.68;3.00;;;23.10;27.60;;;;;;5063711;28;20582;-47
2022/03/14 01:57:07;;;;;;;4.55;2.90;;;23.10;27.60;;;;;;5062815;28;20028;-48
2022/03/14 01:59:33;;;;;;;4.63;2.85;;;23.10;27.60;;;;;;5063400;28;20090;-49
2022/03/14 02:01:59;;;;;;;4.95;2.97;;;23.10;27.60;;;;;;5063367;28;20072;-48
2022/03/14 02:04:25;;;;;;;4.50;3.08;;;23.00;27.50;;;;;;5064344;28;20039;-48
2022/03/14 02:06:56;;;;;;;4.57;3.17;;;23.00;27.50;;;;;;5064567;28;20036;-48
2022/03/14 02:09:22;;;;;;;4.47;2.88;;;23.00;27.50;;;;;;5063755;28;20107;-47
2022/03/14 02:12:04;;;;;;;4.40;2.92;;;23.00;27.50;;;;;;5063523;28;20028;-48
2022/03/14 02:14:30;;;;;;;4.20;2.77;;;23.00;27.60;;;;;;5063197;28;20030;-49
2022/03/14 02:16:56;;;;;;;4.53;3.45;;;23.00;27.50;;;;;;5063760;28;20043;-48
2022/03/14 02:19:21;;;;;;;4.68;2.90;;;23.00;27.60;;;;;;5064179;28;20039;-49
2022/03/14 02:21:47;;;;;;;4.60;3.00;;;23.00;27.60;;;;;;5063620;28;20484;-49
2022/03/14 02:24:13;;;;;;;4.35;3.03;;;23.00;27.60;;;;;;5063824;28;20480;-49
2022/03/14 02:26:40;;;;;;;4.43;2.92;;;22.90;27.60;;;;;;5063485;28;20499;-48
2022/03/14 02:29:10;;;;;;;4.53;2.63;;;23.00;27.60;;;;;;5066691;28;20029;-49
2022/03/14 02:31:39;;;;;;;4.53;3.13;;;22.90;27.60;;;;;;5067979;28;20115;-49
2022/03/14 02:34:07;;;;;;;4.45;3.05;;;22.90;27.70;;;;;;5065693;28;20021;-48
2022/03/14 02:36:34;;;;;;;4.65;2.83;;;22.90;27.70;;;;;;5067236;28;20095;-47
2022/03/14 02:38:59;;;;;;;4.47;3.03;;;22.90;27.70;;;;;;5067042;28;20376;-49
2022/03/14 02:41:25;;;;;;;4.57;2.83;;;22.90;27.70;;;;;;5066964;28;20040;-49
2022/03/14 02:43:51;;;;;;;4.40;2.65;;;22.90;27.70;;;;;;5067228;28;20024;-48
2022/03/14 02:46:17;;;;;;;3.97;2.60;;;22.90;27.70;;;;;;5066192;28;20036;-48
2022/03/14 02:48:44;;;;;;;5.07;2.90;;;22.90;27.70;;;;;;5065706;28;20021;-48
2022/03/14 02:51:10;;;;;;;4.38;2.90;;;22.90;27.70;;;;;;5067445;28;20033;-49
2022/03/14 02:53:35;;;;;;;4.55;3.00;;;22.80;27.60;;;;;;5067375;28;20029;-48
2022/03/14 02:56:01;;;;;;;4.50;2.80;;;22.80;27.60;;;;;;5067122;28;20031;-48
2022/03/14 02:58:29;;;;;;;3.95;2.35;;;22.80;27.60;;;;;;5066017;28;20553;-47
2022/03/14 03:00:57;;;;;;;4.15;2.75;;;22.80;27.60;;;;;;5067090;28;20028;-48
2022/03/14 03:03:23;;;;;;;4.47;2.67;;;22.80;27.70;;;;;;5067216;28;20272;-49
2022/03/14 03:05:48;;;;;;;4.72;3.10;;;22.90;27.70;;;;;;5067272;28;20175;-48
2022/03/14 03:08:14;;;;;;;4.13;2.90;;;22.80;27.70;;;;;;5065977;28;20123;-48
2022/03/14 03:10:42;;;;;;;4.10;2.65;;;22.80;27.70;;;;;;5067027;28;20020;-49
2022/03/14 03:13:10;;;;;;;4.80;2.90;;;22.80;27.60;;;;;;5066494;28;20111;-49
2022/03/14 03:15:37;;;;;;;3.53;2.40;;;22.80;27.70;;;;;;5067081;28;20043;-49
2022/03/14 03:18:05;;;;;;;3.90;2.45;;;22.80;27.70;;;;;;5065333;28;20028;-49
2022/03/14 03:20:30;;;;;;;4.68;3.08;;;22.80;27.70;;;;;;5066565;28;20032;-48
2022/03/14 03:22:56;;;;;;;4.28;2.80;;;22.80;27.60;;;;;;5066236;28;20043;-48
2022/03/14 03:25:22;;;;;;;4.00;2.70;;;22.80;27.60;;;;;;5067231;28;20032;-48
2022/03/14 03:27:48;;;;;;;4.32;2.80;;;22.80;27.60;;;;;;5066799;28;20055;-48
2022/03/14 03:30:14;;;;;;;3.80;2.35;;;22.80;27.60;;;;;;5066104;28;20047;-48
2022/03/14 03:32:40;;;;;;;3.90;2.50;;;22.80;27.60;;;;;;5066148;28;20514;-48
2022/03/14 03:35:06;;;;;;;4.47;2.78;;;22.70;27.60;;;;;;5066957;28;20210;-48
2022/03/14 03:37:32;;;;;;;3.95;2.60;;;22.80;27.60;;;;;;5066706;28;20104;-48
2022/03/14 03:39:57;;;;;;;4.40;2.60;;;22.70;27.60;;;;;;5066377;28;20297;-47
2022/03/14 03:42:23;;;;;;;4.75;2.88;;;22.70;27.60;;;;;;5067016;28;20031;-48
2022/03/14 03:44:49;;;;;;;4.47;2.85;;;22.70;27.60;;;;;;5066007;28;20415;-49
2022/03/14 03:47:15;;;;;;;3.83;2.45;;;22.70;27.60;;;;;;5066419;28;20036;-48
2022/03/14 03:49:40;;;;;;;3.90;2.38;;;22.70;27.60;;;;;;5065862;28;20034;-48
2022/03/14 03:52:07;;;;;;;4.40;2.60;;;22.70;27.60;;;;;;5066346;28;20059;-48
2022/03/14 03:54:34;;;;;;;4.70;3.05;;;22.70;27.60;;;;;;5066526;28;20334;-48
2022/03/14 03:56:59;;;;;;;4.40;2.78;;;22.70;27.60;;;;;;5063854;28;20387;-49
2022/03/14 03:59:25;;;;;;;4.30;2.80;;;22.70;27.60;;;;;;5065751;28;20040;-47
2022/03/14 04:01:52;;;;;;;4.22;2.67;;;22.70;27.60;;;;;;5064105;28;20150;-48
2022/03/14 04:04:18;;;;;;;4.70;3.03;;;22.70;27.60;;;;;;5065784;28;20451;-52
2022/03/14 04:06:44;;;;;;;3.72;2.45;;;22.70;27.60;;;;;;5065783;28;20071;-49
2022/03/14 04:09:10;;;;;;;3.38;2.10;;;22.60;27.60;;;;;;5064269;28;20024;-48
2022/03/14 04:11:37;;;;;;;3.47;2.30;;;22.60;27.60;;;;;;5063725;28;20031;-48
2022/03/14 04:14:04;;;;;;;4.80;3.17;;;22.60;27.60;;;;;;5063660;28;20028;-48
2022/03/14 04:16:29;;;;;;;4.00;2.80;;;22.60;27.60;;;;;;5065502;28;20043;-48
2022/03/14 04:18:56;;;;;;;4.03;2.83;;;22.60;27.60;;;;;;5065404;28;20531;-48
2022/03/14 04:21:23;;;;;;;4.28;2.95;;;22.60;27.60;;;;;;5066031;28;20093;-48
2022/03/14 04:23:48;;;;;;;4.30;2.83;;;22.60;27.60;;;;;;5065703;28;20034;-47
2022/03/14 04:26:15;;;;;;;4.40;2.80;;;22.60;27.60;;;;;;5065641;28;20033;-49
2022/03/14 04:28:41;;;;;;;3.90;2.63;;;22.60;27.60;;;;;;5064801;28;20039;-48
2022/03/14 04:31:08;;;;;;;3.40;2.38;;;22.60;27.60;;;;;;5064992;28;20043;-48
2022/03/14 04:33:35;;;;;;;5.20;2.70;;;22.60;28.30;;;;;;5065236;28;20020;-48
2022/03/14 04:36:00;;;;;;;3.78;2.33;;;22.60;27.60;;;;;;5066079;28;20032;-48
2022/03/14 04:38:27;;;;;;;4.22;2.90;;;22.60;27.60;;;;;;5065799;28;20437;-48
2022/03/14 04:40:54;;;;;;;5.28;3.05;;;22.50;27.60;;;;;;5064999;28;20028;-49
2022/03/14 04:43:21;;;;;;;3.88;2.60;;;22.50;27.60;;;;;;5065227;28;20693;-48
2022/03/14 04:45:48;;;;;;;4.20;2.80;;;22.50;27.60;;;;;;5065161;28;20033;-49
2022/03/14 04:48:15;;;;;;;4.65;2.75;;;22.50;27.60;;;;;;5064160;28;20501;-49
2022/03/14 04:50:42;;;;;;;4.30;2.83;;;22.50;27.60;;;;;;5064395;28;20059;-48
2022/03/14 04:53:09;;;;;;;4.60;3.10;;;22.50;27.60;;;;;;5065175;28;20055;-48
2022/03/14 04:55:36;;;;;;;4.10;2.67;;;22.50;27.60;;;;;;5065514;28;20032;-48
2022/03/14 04:58:03;;;;;;;4.18;2.95;;;22.50;27.60;;;;;;5062892;28;20101;-48
2022/03/14 05:00:29;;;;;;;4.18;2.53;;;22.50;28.30;;;;;;5062465;28;20571;-49
2022/03/14 05:03:03;;;;;;;3.95;2.60;;;22.50;27.60;;;;;;5062386;28;20123;-47
2022/03/14 05:05:29;;;;;;;5.35;2.80;;;22.50;27.60;;;;;;5064151;28;20085;-47
2022/03/14 05:07:55;;;;;;;4.25;2.90;;;22.50;27.60;;;;;;5064497;28;20125;-48
2022/03/14 05:10:21;;;;;;;4.18;2.83;;;22.40;27.50;;;;;;5064624;28;20503;-48
2022/03/14 05:12:48;;;;;;;4.00;3.05;;;22.40;27.50;;;;;;5064542;28;20472;-48
2022/03/14 05:15:16;;;;;;;4.40;2.78;;;22.40;27.60;;;;;;5063135;28;20029;-49
2022/03/14 05:17:42;;;;;;;4.40;2.78;;;22.40;27.60;;;;;;5063968;28;20161;-47
2022/03/14 05:20:09;;;;;;;4.80;3.05;;;22.50;27.70;;;;;;5064152;28;20024;-48
2022/03/14 05:22:48;;;;;;;3.78;2.65;;;22.40;27.60;;;;;;5064803;28;20341;-47
2022/03/14 05:25:21;;;;;;;4.13;2.72;;;22.50;27.70;;;;;;5064937;28;20020;-48
2022/03/14 05:27:47;;;;;;;;;;;22.50;27.80;;;;;;5065729;28;20039;-48
2022/03/14 05:30:13;;;;;;;3.97;2.55;;;22.50;27.80;;;;;;5064327;28;19909;-47
2022/03/14 05:32:40;;;;;;;4.65;2.60;;;22.50;27.80;;;;;;5064811;28;20177;-48
2022/03/14 05:35:07;;;;;;;3.85;2.42;;;22.50;27.90;;;;;;5064104;28;20433;-48
2022/03/14 05:37:33;;;;;;;4.32;2.70;;;22.60;27.90;;;;;;5064641;28;20531;-48
2022/03/14 05:39:59;;;;;;;3.63;2.03;;;22.60;27.90;;;;;;5064042;28;20563;-50
2022/03/14 05:42:25;;;;;;;4.03;2.30;;;22.70;28.00;;;;;;5062196;28;20039;-49
2022/03/14 05:44:51;;;;;;;3.90;2.53;;;22.70;28.00;;;;;;5060684;28;20025;-49
2022/03/14 05:47:18;;;;;;;3.70;2.08;;;22.80;28.00;;;;;;5063137;28;20032;-49
2022/03/14 05:49:44;;;;;;;4.30;2.60;;;22.90;28.00;;;;;;5062492;28;20489;-48
2022/03/14 05:52:11;;;;;;;3.72;2.42;;;23.00;27.90;;;;;;5063516;28;20031;-48
2022/03/14 05:54:37;;;;;;;3.90;2.50;;;23.00;27.80;;;;;;5063393;28;20118;-49
2022/03/14 05:57:03;;;;;;;3.90;2.53;;;23.10;27.80;;;;;;5063589;28;20020;-49
2022/03/14 05:59:31;;;;;;;3.72;2.22;;;23.10;27.70;;;;;;5062180;28;20588;-49
2022/03/14 06:01:57;;;;;;;4.55;2.78;;;23.20;27.80;;;;;;5062422;28;20028;-50
2022/03/14 06:04:23;;;;;;;5.80;2.97;;;23.20;28.00;;;;;;5063267;28;20024;-49
2022/03/14 06:06:49;;;;;;;4.75;2.63;;;23.30;28.20;;;;;;5059125;28;20028;-48
2022/03/14 06:09:15;;;;;;;4.82;2.95;;;23.40;28.40;;;;;;5062207;28;20059;-50
2022/03/14 06:11:42;;;;;;;6.05;2.92;;;23.50;28.60;;;;;;5052124;28;20210;-49
2022/03/14 06:14:08;;;;;;;5.10;2.97;;;23.50;28.60;;;;;;5050144;28;20474;-48
2022/03/14 06:16:34;;;;;;;6.22;3.20;;;23.60;28.80;;;;;;5061444;28;20017;-48
2022/03/14 06:19:00;;;;;;;4.78;2.78;;;23.70;28.70;;;;;;5060504;28;20029;-48
2022/03/14 06:21:26;;;;;;;5.47;2.85;;;23.70;28.60;;;;;;5059693;28;20032;-48
2022/03/14 06:23:51;;;;;;;4.40;2.95;;;23.80;28.40;;;;;;5060893;28;20020;-47
2022/03/14 06:26:18;;;;;;;5.28;3.20;;;23.90;28.30;;;;;;5061133;28;20104;-49
2022/03/14 06:28:44;;;;;;;4.47;2.80;;;24.00;28.20;;;;;;5059529;28;20033;-49
2022/03/14 06:31:10;;;;;;;4.78;2.75;;;24.00;28.10;;;;;;5045271;28;20032;-50
2022/03/14 06:33:36;;;;;;;4.50;2.90;;;24.10;28.00;;;;;;5042285;28;20038;-49
2022/03/14 06:36:02;;;;;;;7.18;3.03;;;24.10;27.90;;;;;;5055100;28;20024;-49
2022/03/14 06:38:28;;;;;;;4.03;2.58;;;24.20;27.90;;;;;;5058767;28;20032;-49
2022/03/14 06:40:56;;;;;;;3.70;2.35;;;24.20;27.70;;;;;;5060937;28;20032;-48
2022/03/14 06:43:23;;;;;;;4.05;2.50;;;24.20;27.60;;;;;;5062181;28;20025;-49
2022/03/14 06:45:49;;;;;;;4.15;2.20;;;24.30;27.60;;;;;;5061766;28;20071;-48
2022/03/14 06:48:15;;;;;;;4.60;3.15;;;24.30;27.50;;;;;;5061733;28;20068;-49
2022/03/14 06:50:41;;;;;;;4.50;2.80;;;24.30;27.30;;;;;;5061266;28;20768;-47
2022/03/14 06:53:07;;;;;;;6.78;2.97;;;24.40;27.30;;;;;;5057348;28;20037;-47
2022/03/14 06:55:33;;;;;;;5.47;3.05;;;24.40;27.30;;;;;;5061506;28;20074;-48
2022/03/14 06:57:59;;;;;;;4.28;2.83;;;24.50;27.30;;;;;;5062335;28;20416;-48
2022/03/14 07:00:26;;;;;;;3.50;2.20;;;24.50;27.30;;;;;;5058437;28;20112;-47
2022/03/14 07:02:53;;;;;;;4.15;2.42;;;24.50;27.30;;;;;;5042838;28;20052;-49
2022/03/14 07:05:20;;;;;;;5.13;2.80;;;24.60;27.20;;;;;;5045930;28;20722;-48
2022/03/14 07:07:52;;;;;;;4.90;2.75;;;24.60;27.20;;;;;;5055945;28;20067;-49
2022/03/14 07:10:18;;;;;;;5.43;3.22;;;24.70;27.30;;;;;;5061451;28;20024;-47
2022/03/14 07:12:46;;;;;;;4.15;2.60;;;24.70;27.20;;;;;;5062393;28;20029;-48
2022/03/14 07:15:19;;;;;;;6.95;3.22;;;24.70;27.10;;;;;;5065859;28;20024;-48
2022/03/14 07:17:45;;;;;;;4.75;2.97;;;24.80;27.10;;;;;;5065375;28;20025;-47
2022/03/14 07:20:12;;;;;;;4.80;3.00;;;24.80;27.00;;;;;;5065893;28;20027;-48
2022/03/14 07:22:54;;;;;;;7.57;3.50;;;24.80;27.00;;;;;;5066921;28;20033;-48
2022/03/14 07:25:21;;;;;;;4.57;3.00;;;24.90;27.10;;;;;;5066484;28;20028;-48
2022/03/14 07:27:47;;;;;;;4.88;3.00;;;24.90;27.00;;;;;;5065113;28;20036;-48
2022/03/14 07:30:14;;;;;;;6.10;3.40;;;24.90;27.00;;;;;;5065711;28;20722;-48
2022/03/14 07:32:40;;;;;;;5.18;3.55;;;25.00;26.90;;;;;;5065403;28;20128;-47
2022/03/14 07:35:06;;;;;;;5.10;3.05;;;25.00;26.90;;;;;;5067115;28;20032;-48
2022/03/14 07:37:32;;;;;;;4.80;2.97;;;25.00;26.90;;;;;;5067126;28;20047;-48
2022/03/14 07:39:58;;;;;;;4.93;2.72;;;25.00;26.90;;;;;;5065428;28;20427;-48
2022/03/14 07:42:24;;;;;;;4.28;2.53;;;25.00;26.80;;;;;;5067058;28;20037;-48
2022/03/14 07:44:50;;;;;;;5.07;3.05;;;25.00;26.80;;;;;;5066941;28;20744;-48
2022/03/14 07:47:16;;;;;;;6.57;3.70;;;25.10;26.70;;;;;;5067255;28;20036;-49
2022/03/14 07:49:41;;;;;;;5.80;3.00;;;25.10;26.60;;;;;;5066685;28;20032;-49
2022/03/14 07:52:07;;;;;;;6.22;3.13;;;25.10;26.70;;;;;;5065545;28;20028;-49
2022/03/14 07:54:33;;;;;;;4.95;3.33;;;25.10;26.60;;;;;;5066746;28;20024;-48
2022/03/14 07:56:59;;;;;;;6.32;3.28;;;25.20;26.50;;;;;;5066638;28;20177;-49
2022/03/14 07:59:25;;;;;;;6.20;3.70;;;25.10;26.50;;;;;;5064552;28;20016;-48
2022/03/14 08:01:51;;;;;;;6.10;3.50;;;25.20;26.40;;;;;;5066277;28;20025;-48
2022/03/14 08:04:16;;;;;;;5.90;3.67;;;25.20;26.50;;;;;;5066572;28;20455;-48
2022/03/14 08:06:42;;;;;;;6.13;3.63;;;25.20;26.40;;;;;;5066545;28;20028;-49
2022/03/14 08:09:11;;;;;;;5.50;3.72;;;25.20;26.30;;;;;;5060574;28;20162;-48
2022/03/14 08:11:38;;;;;;;5.72;3.83;;;25.20;26.20;;;;;;5064817;28;20178;-48
2022/03/14 08:14:05;;;;;;;4.43;3.00;;;25.30;26.20;;;;;;5066587;28;20081;-48
2022/03/14 08:16:31;;;;;;;6.13;3.15;;;25.30;26.20;;;;;;5066227;28;20562;-49
2022/03/14 08:18:56;;;;;;;5.60;3.58;;;25.30;26.10;;;;;;5065345;28;20021;-48
2022/03/14 08:21:22;;;;;;;5.03;3.40;;;25.30;26.20;;;;;;5065886;28;20032;-48
2022/03/14 08:23:48;;;;;;;6.28;3.83;;;25.30;26.20;;;;;;5066503;28;20216;-49
2022/03/14 08:26:14;;;;;;;6.07;3.30;;;25.30;26.10;;;;;;5064930;28;20013;-48
2022/03/14 08:28:41;;;;;;;6.20;3.58;;;25.40;26.10;;;;;;5066063;28;20495;-48
2022/03/14 08:31:06;;;;;;;6.22;3.58;;;25.40;26.10;;;;;;5065847;28;20028;-48
2022/03/14 08:33:33;;;;;;;5.15;3.50;;;25.40;26.00;;;;;;5064236;28;20035;-49
2022/03/14 08:36:01;;;;;;;4.78;2.92;;;25.40;26.00;;;;;;5066085;28;20059;-50
2022/03/14 08:38:27;;;;;;;5.28;3.13;;;25.40;26.00;;;;;;5065802;28;20032;-50
2022/03/14 08:40:53;;;;;;;4.20;2.75;;;25.40;26.00;;;;;;5065531;28;20133;-49
2022/03/14 08:43:19;;;;;;;4.15;2.45;;;25.40;26.00;;;;;;5064316;28;20032;-49
2022/03/14 08:45:45;;;;;;;4.88;3.15;;;25.40;26.60;;;;;;5065769;28;20497;-49
2022/03/14 08:48:12;;;;;;;5.03;2.92;;;25.40;25.90;;;;;;5065674;28;20033;-49
2022/03/14 08:50:40;;;;;;;5.72;3.20;;;25.40;25.90;;;;;;5065411;28;20036;-49
2022/03/14 08:53:07;;;;;;;4.85;2.88;;;25.40;25.90;;;;;;5065572;28;20112;-49
2022/03/14 08:55:32;;;;;;;5.05;2.80;;;25.50;25.90;;;;;;5064168;28;20565;-49
2022/03/14 08:57:58;;;;;;;5.25;3.05;;;25.50;25.90;;;;;;5065281;28;20227;-49
2022/03/14 09:00:27;;;;;;;5.32;3.40;;;25.50;25.80;;;;;;5065004;28;20050;-49
2022/03/14 09:02:53;;;;;;;4.50;2.83;;;25.50;25.80;;;;;;5065386;28;20039;-49
2022/03/14 09:05:20;;;;;;;5.13;3.13;;;25.50;25.80;;;;;;5065377;28;20111;-49
2022/03/14 09:07:45;;;;;;;4.45;2.60;;;25.50;25.90;;;;;;5065410;28;20040;-48
2022/03/14 09:10:13;;;;;;;4.25;2.67;;;25.60;25.80;;;;;;5065093;28;20571;-48
2022/03/14 09:12:40;;;;;;;5.25;3.10;;;25.50;25.90;;;;;;5064999;28;20032;-49
2022/03/14 09:15:07;;;;;;;5.32;2.85;;;25.60;25.80;;;;;;5063443;28;20052;-49
2022/03/14 09:17:35;;;;;;;4.80;2.95;;;25.50;25.80;;;;;;5064999;28;20047;-49
2022/03/14 09:20:05;;;;;;;4.05;2.60;;;25.60;25.80;;;;;;5064525;28;20090;-49
2022/03/14 09:22:31;;;;;;;4.75;2.60;;;25.60;25.80;;;;;;5064917;28;20032;-49
2022/03/14 09:24:58;;;;;;;5.40;3.03;;;25.60;25.80;;;;;;5064909;28;20044;-49
2022/03/14 09:27:25;;;;;;;5.18;2.83;;;25.60;25.70;;;;;;5064981;28;20036;-53
2022/03/14 09:29:51;;;;;;;5.13;3.40;;;25.60;25.80;;;;;;5064708;28;20086;-49
2022/03/14 09:32:17;;;;;;;4.18;2.80;;;25.60;25.80;;;;;;5064850;28;20028;-49
2022/03/14 09:34:43;;;;;;;4.70;2.58;;;25.60;25.70;;;;;;5065100;28;20232;-49
2022/03/14 09:37:09;;;;;;;4.80;2.50;;;25.60;25.70;;;;;;5064773;28;20548;-49
2022/03/14 09:39:34;;;;;;;4.55;2.85;;;25.60;25.70;;;;;;5063102;28;20028;-49
2022/03/14 09:42:02;;;;;;;4.65;3.08;;;25.60;25.70;;;;;;5064905;28;20024;-48
2022/03/14 09:44:29;;;;;;;4.13;2.38;;;25.60;25.70;;;;;;5064928;28;20060;-50
2022/03/14 09:46:59;;;;;;;4.22;3.00;;;25.60;25.70;;;;;;5064471;28;20021;-49
2022/03/14 09:49:26;;;;;;;4.03;2.55;;;25.60;25.70;;;;;;5064667;28;20028;-49
2022/03/14 09:51:54;;;;;;;4.22;2.67;;;25.60;25.70;;;;;;5064957;28;20036;-49
2022/03/14 09:54:21;;;;;;;4.53;2.80;;;25.60;25.70;;;;;;5063867;28;20051;-49
2022/03/14 09:56:47;;;;;;;4.47;2.72;;;25.60;25.70;;;;;;5063323;28;20017;-50
2022/03/14 09:59:13;;;;;;;4.55;2.63;;;25.60;25.70;;;;;;5064280;28;20393;-50
2022/03/14 10:01:41;;;;;;;4.18;2.60;;;25.70;25.70;;;;;;5064510;28;20119;-48
2022/03/14 10:04:08;;;;;;;5.05;3.22;;;25.70;25.70;;;;;;5064195;28;20056;-50
2022/03/14 10:06:36;;;;;;;4.05;2.67;;;25.70;25.70;;;;;;5064557;28;20558;-50
2022/03/14 10:09:03;;;;;;;3.67;2.53;;;25.70;25.60;;;;;;5064020;28;20029;-50
2022/03/14 10:11:29;;;;;;;4.80;2.70;;;25.70;25.70;;;;;;5063934;28;20406;-50
2022/03/14 10:13:55;;;;;;;3.95;2.40;;;25.70;25.70;;;;;;5064664;28;20089;-49
2022/03/14 10:16:20;;;;;;;4.40;2.80;;;25.70;25.60;;;;;;5064278;28;20492;-49
2022/03/14 10:18:54;;;;;;;4.13;2.30;;;25.70;25.60;;;;;;5063575;28;20256;-49
2022/03/14 10:21:34;;;;;;;3.90;2.38;;;25.70;25.70;;;;;;5064076;28;20066;-48
2022/03/14 10:24:01;;;;;;;4.65;2.67;;;25.70;26.30;;;;;;5063947;28;20021;-49
2022/03/14 10:26:29;;;;;;;4.13;2.13;;;25.70;25.60;;;;;;5063954;28;20097;-49
2022/03/14 10:28:57;;;;;;;3.88;2.25;;;25.70;25.60;;;;;;5064005;28;20017;-49
2022/03/14 10:31:36;;;;;;;4.10;2.38;;;25.70;25.60;;;;;;5063669;28;20438;-49
2022/03/14 10:34:10;;;;;;;4.90;2.70;;;25.70;25.60;;;;;;5064062;28;20044;-49
2022/03/14 10:36:42;;;;;;;4.70;2.58;;;25.70;25.50;;;;;;5064441;28;20024;-49
2022/03/14 10:39:12;;;;;;;4.53;2.28;;;25.70;25.60;;;;;;5063821;28;20519;-48
2022/03/14 10:41:39;;;;;;;5.70;2.83;;;25.70;25.60;;;;;;5064232;28;20044;-49
2022/03/14 10:44:05;;;;;;;4.45;2.58;;;25.80;25.60;;;;;;5063985;28;20074;-48
2022/03/14 10:46:31;;;;;;;4.30;2.40;;;25.80;25.50;;;;;;5063751;28;20101;-48
2022/03/14 10:48:58;;;;;;;3.97;2.38;;;25.70;25.60;;;;;;5063724;28;20491;-49
2022/03/14 10:51:23;;;;;;;4.10;2.40;;;25.80;25.50;;;;;;5067517;28;20488;-48
2022/03/14 10:53:49;;;;;;;3.78;2.55;;;25.80;25.50;;;;;;5067864;28;20032;-48
2022/03/14 10:56:17;;;;;;;3.47;2.50;;;25.80;25.50;;;;;;5067892;28;20365;-49
2022/03/14 10:58:43;;;;;;;4.05;2.40;;;25.80;25.50;;;;;;5065863;28;20161;-48
2022/03/14 11:01:12;;;;;;;4.53;2.72;;;25.80;25.50;;;;;;5067415;28;20123;-49
2022/03/14 11:03:40;;;;;;;4.30;2.60;;;25.80;25.50;;;;;;5067615;28;20028;-49
2022/03/14 11:06:17;;;;;;;4.40;2.25;;;25.80;25.50;;;;;;5067391;28;20114;-49
2022/03/14 11:08:47;;;;;;;4.38;2.70;;;25.80;25.50;;;;;;5067346;28;20028;-50
2022/03/14 11:11:15;;;;;;;3.72;2.42;;;25.70;25.50;;;;;;5067110;28;20020;-49
2022/03/14 11:13:46;;;;;;;4.40;2.40;;;25.70;25.50;;;;;;5067368;28;20491;-49
2022/03/14 11:16:22;;;;;;;3.75;2.35;;;25.70;25.50;;;;;;5067226;28;20016;-49
2022/03/14 11:18:49;;;;;;;4.32;2.47;;;25.70;25.50;;;;;;5066443;28;20415;-49
2022/03/14 11:21:16;;;;;;;3.50;2.20;;;25.70;25.50;;;;;;5066995;28;20029;-49
2022/03/14 11:23:47;;;;;;;3.70;2.30;;;25.70;25.50;;;;;;5066878;28;20029;-49
2022/03/14 11:26:17;;;;;;;4.20;2.30;;;25.80;25.50;;;;;;5067194;28;20032;-49
2022/03/14 11:28:44;;;;;;;4.25;2.88;;;25.70;25.50;;;;;;5066886;28;20017;-49
2022/03/14 11:31:10;;;;;;;3.88;2.25;;;25.70;25.50;;;;;;5065478;28;20220;-50
2022/03/14 11:33:36;;;;;;;3.85;2.25;;;25.70;25.50;;;;;;5066780;28;20040;-50
2022/03/14 11:36:04;;;;;;;4.30;2.35;;;25.70;25.50;;;;;;5067082;28;20570;-49
2022/03/14 11:38:30;;;;;;;3.85;2.65;;;25.70;25.50;;;;;;5066931;28;20047;-49
2022/03/14 11:40:57;;;;;;;3.08;1.88;;;25.70;25.50;;;;;;5066402;28;20064;-49
2022/03/14 11:43:24;;;;;;;4.32;2.42;;;25.70;25.50;;;;;;5067052;28;20100;-50
2022/03/14 11:45:51;;;;;;;3.65;2.22;;;25.70;25.50;;;;;;5066915;28;20039;-49
2022/03/14 11:48:19;;;;;;;4.00;2.40;;;25.80;25.60;;;;;;5066908;28;20447;-49
2022/03/14 11:50:56;;;;;;;4.78;2.92;;;25.80;25.50;;;;;;5066638;28;20039;-49
2022/03/14 11:53:26;;;;;;;5.10;2.50;;;25.80;25.50;;;;;;5066497;28;20510;-48
2022/03/14 11:55:54;;;;;;;4.10;2.30;;;25.80;25.50;;;;;;5066347;28;20153;-49
2022/03/14 11:58:40;;;;;;;4.35;2.45;;;25.80;25.60;;;;;;5065379;28;20052;-48
2022/03/14 12:01:12;;;;;;;3.92;2.45;;;25.80;25.60;;;;;;5065065;28;20086;-50
2022/03/14 12:03:43;;;;;;;3.70;2.35;;;25.80;25.60;;;;;;5065256;28;20120;-48
2022/03/14 12:06:08;;;;;;;3.90;2.38;;;25.80;25.50;;;;;;5066828;28;20035;-49
2022/03/14 12:08:34;;;;;;;3.63;2.35;;;25.80;25.60;;;;;;5064909;28;20453;-50
2022/03/14 12:11:28;;;;;;;4.55;2.88;;;25.80;25.60;;;;;;5066240;28;20028;-50
2022/03/14 12:13:54;;;;;;;4.00;2.25;;;25.80;25.60;;;;;;5066091;28;20067;-49
2022/03/14 12:16:42;;;;;;;3.42;2.20;;;25.80;25.70;;;;;;5065564;28;20492;-49
2022/03/14 12:19:42;;;;;;;4.30;2.67;;;25.80;25.80;;;;;;5065236;28;20025;-49
2022/03/14 12:22:13;;;;;;;4.28;2.50;;;25.80;25.80;;;;;;5043056;28;20145;-49
2022/03/14 12:24:39;;;;;;;3.75;2.33;;;25.80;25.80;;;;;;5066236;28;20068;-49
2022/03/14 12:27:24;;;;;;;8.75;2.70;;;25.80;25.80;;;;;;5065844;28;20052;-48
2022/03/14 12:29:52;;;;;;;4.45;2.08;;;25.80;25.80;;;;;;5065584;28;20465;-48
2022/03/14 12:32:41;;;;;;;3.33;1.95;;;25.80;25.70;;;;;;5065886;28;20037;-49
2022/03/14 12:35:11;;;;;;;3.55;1.88;;;25.80;25.70;;;;;;5064545;28;20220;-50
2022/03/14 12:38:13;;;;;;;4.55;1.90;;;25.90;25.60;;;;;;5064687;28;20021;-49
2022/03/14 12:40:44;;;;;;;3.80;2.15;;;25.90;25.60;;;;;;5063299;28;20056;-50
2022/03/14 12:43:25;;;;;;;3.30;1.77;;;25.90;25.60;;;;;;5065545;28;20078;-49
2022/03/14 12:45:57;;;;;;;4.28;2.28;;;25.90;25.60;;;;;;5065540;28;20025;-49
2022/03/14 12:48:27;;;;;;;;;;;25.90;25.60;;;;;;5065878;28;20094;-48
2022/03/14 12:50:54;;;;;;;5.22;2.25;;;26.00;26.00;;;;;;5065229;28;19931;-49